sensor_id;sensor_type;location;lat;lon;timestamp;pressure;altitude;pressure_sealevel;temperature;humidity
45541;BME280;31265;49.680;8.608;2022-08-21T00:01:04;100585.22;;;15.22;100.00
45541;BME280;31265;49.680;8.608;2022-08-21T00:03:33;100588.03;;;15.22;100.00
45541;BME280;31265;49.680;8.608;2022-08-21T00:06:02;100588.47;;;15.18;100.00
45541;BME280;31265;49.680;8.608;2022-08-21T00:08:30;100586.09;;;15.15;100.00
45541;BME280;31265;49.680;8.608;2022-08-21T00:10:58;100581.84;;;15.14;100.00
45541;BME280;31265;49.680;8.608;2022-08-21T00:13:28;100586.41;;;15.09;100.00
45541;BME280;31265;49.680;8.608;2022-08-21T00:15:56;100589.06;;;15.07;100.00
45541;BME280;31265;49.680;8.608;2022-08-21T00:18:25;100582.44;;;15.02;100.00
45541;BME280;31265;49.680;8.608;2022-08-21T00:20:53;100573.63;;;14.96;100.00
45541;BME280;31265;49.680;8.608;2022-08-21T00:23:21;100571.09;;;14.91;100.00
45541;BME280;31265;49.680;8.608;2022-08-21T00:25:49;100574.19;;;14.85;100.00
45541;BME280;31265;49.680;8.608;2022-08-21T00:28:18;100567.00;;;14.82;100.00
45541;BME280;31265;49.680;8.608;2022-08-21T00:30:47;100566.69;;;14.78;100.00
45541;BME280;31265;49.680;8.608;2022-08-21T00:33:15;100562.59;;;14.79;100.00
45541;BME280;31265;49.680;8.608;2022-08-21T00:35:44;100565.22;;;14.77;100.00
45541;BME280;31265;49.680;8.608;2022-08-21T00:38:12;100557.88;;;14.72;100.00
45541;BME280;31265;49.680;8.608;2022-08-21T00:40:43;100559.03;;;14.69;100.00
45541;BME280;31265;49.680;8.608;2022-08-21T00:43:14;100560.34;;;14.68;100.00
45541;BME280;31265;49.680;8.608;2022-08-21T00:45:43;100563.63;;;14.74;100.00
45541;BME280;31265;49.680;8.608;2022-08-21T00:48:13;100569.63;;;14.70;100.00
45541;BME280;31265;49.680;8.608;2022-08-21T00:50:46;100563.75;;;14.76;100.00
45541;BME280;31265;49.680;8.608;2022-08-21T00:53:16;100563.59;;;14.93;100.00
45541;BME280;31265;49.680;8.608;2022-08-21T00:55:45;100559.66;;;14.96;100.00
45541;BME280;31265;49.680;8.608;2022-08-21T00:58:16;100569.50;;;14.97;100.00
45541;BME280;31265;49.680;8.608;2022-08-21T01:00:48;100572.13;;;14.95;100.00
45541;BME280;31265;49.680;8.608;2022-08-21T01:03:22;100567.28;;;15.05;100.00
45541;BME280;31265;49.680;8.608;2022-08-21T01:05:52;100581.84;;;15.04;100.00
45541;BME280;31265;49.680;8.608;2022-08-21T01:08:21;100577.31;;;15.09;100.00
45541;BME280;31265;49.680;8.608;2022-08-21T01:10:50;100579.34;;;15.08;100.00
45541;BME280;31265;49.680;8.608;2022-08-21T01:13:25;100574.94;;;15.05;100.00
45541;BME280;31265;49.680;8.608;2022-08-21T01:15:55;100575.09;;;14.97;100.00
45541;BME280;31265;49.680;8.608;2022-08-21T01:18:27;100581.13;;;14.94;100.00
45541;BME280;31265;49.680;8.608;2022-08-21T01:21:04;100581.69;;;14.92;100.00
45541;BME280;31265;49.680;8.608;2022-08-21T01:23:34;100574.78;;;14.93;100.00
45541;BME280;31265;49.680;8.608;2022-08-21T01:26:03;100579.78;;;14.85;100.00
45541;BME280;31265;49.680;8.608;2022-08-21T01:28:36;100582.56;;;14.75;100.00
45541;BME280;31265;49.680;8.608;2022-08-21T01:31:07;100580.50;;;14.76;100.00
45541;BME280;31265;49.680;8.608;2022-08-21T01:33:36;100578.88;;;14.73;100.00
45541;BME280;31265;49.680;8.608;2022-08-21T01:36:06;100583.88;;;14.65;100.00
45541;BME280;31265;49.680;8.608;2022-08-21T01:38:35;100580.50;;;14.56;100.00
45541;BME280;31265;49.680;8.608;2022-08-21T01:41:03;100577.94;;;14.51;100.00
45541;BME280;31265;49.680;8.608;2022-08-21T01:43:31;100587.22;;;14.53;100.00
45541;BME280;31265;49.680;8.608;2022-08-21T01:46:05;100582.78;;;14.50;100.00
45541;BME280;31265;49.680;8.608;2022-08-21T01:48:34;100581.63;;;14.53;100.00
45541;BME280;31265;49.680;8.608;2022-08-21T01:51:03;100580.28;;;14.45;100.00
45541;BME280;31265;49.680;8.608;2022-08-21T01:53:35;100577.91;;;14.41;100.00
45541;BME280;31265;49.680;8.608;2022-08-21T01:56:05;100571.88;;;14.35;100.00
45541;BME280;31265;49.680;8.608;2022-08-21T01:58:38;100579.06;;;14.28;100.00
45541;BME280;31265;49.680;8.608;2022-08-21T02:01:07;100578.00;;;14.24;100.00
45541;BME280;31265;49.680;8.608;2022-08-21T02:03:36;100575.34;;;14.16;100.00
45541;BME280;31265;49.680;8.608;2022-08-21T02:06:06;100569.47;;;14.22;100.00
45541;BME280;31265;49.680;8.608;2022-08-21T02:08:35;100574.19;;;14.29;100.00
45541;BME280;31265;49.680;8.608;2022-08-21T02:11:03;100570.84;;;14.30;100.00
45541;BME280;31265;49.680;8.608;2022-08-21T02:13:31;100568.16;;;14.23;100.00
45541;BME280;31265;49.680;8.608;2022-08-21T02:15:59;100557.88;;;14.15;100.00
45541;BME280;31265;49.680;8.608;2022-08-21T02:18:28;100552.72;;;14.22;100.00
45541;BME280;31265;49.680;8.608;2022-08-21T02:20:56;100553.63;;;14.24;100.00
45541;BME280;31265;49.680;8.608;2022-08-21T02:23:24;100556.69;;;14.18;100.00
45541;BME280;31265;49.680;8.608;2022-08-21T02:25:56;100554.75;;;14.11;100.00
45541;BME280;31265;49.680;8.608;2022-08-21T02:28:25;100549.34;;;14.13;100.00
45541;BME280;31265;49.680;8.608;2022-08-21T02:30:54;100551.06;;;14.09;100.00
45541;BME280;31265;49.680;8.608;2022-08-21T02:33:23;100546.97;;;14.10;100.00
45541;BME280;31265;49.680;8.608;2022-08-21T02:35:52;100552.97;;;14.06;100.00
45541;BME280;31265;49.680;8.608;2022-08-21T02:38:23;100546.66;;;14.06;100.00
45541;BME280;31265;49.680;8.608;2022-08-21T02:40:52;100553.41;;;14.03;100.00
45541;BME280;31265;49.680;8.608;2022-08-21T02:43:24;100553.38;;;13.93;100.00
45541;BME280;31265;49.680;8.608;2022-08-21T02:45:54;100551.44;;;13.86;100.00
45541;BME280;31265;49.680;8.608;2022-08-21T02:48:25;100548.31;;;13.82;100.00
45541;BME280;31265;49.680;8.608;2022-08-21T02:50:55;100546.13;;;13.80;100.00
45541;BME280;31265;49.680;8.608;2022-08-21T02:53:24;100546.25;;;13.72;100.00
45541;BME280;31265;49.680;8.608;2022-08-21T02:55:53;100541.66;;;13.67;100.00
45541;BME280;31265;49.680;8.608;2022-08-21T02:58:25;100544.28;;;13.65;100.00
45541;BME280;31265;49.680;8.608;2022-08-21T03:00:53;100541.34;;;13.63;100.00
45541;BME280;31265;49.680;8.608;2022-08-21T03:03:21;100543.66;;;13.57;100.00
45541;BME280;31265;49.680;8.608;2022-08-21T03:05:50;100541.91;;;13.62;100.00
45541;BME280;31265;49.680;8.608;2022-08-21T03:08:19;100548.38;;;13.64;100.00
45541;BME280;31265;49.680;8.608;2022-08-21T03:10:51;100545.03;;;13.66;100.00
45541;BME280;31265;49.680;8.608;2022-08-21T03:13:20;100545.59;;;13.64;100.00
45541;BME280;31265;49.680;8.608;2022-08-21T03:15:50;100549.53;;;13.61;100.00
45541;BME280;31265;49.680;8.608;2022-08-21T03:18:18;100541.75;;;13.60;100.00
45541;BME280;31265;49.680;8.608;2022-08-21T03:20:47;100546.31;;;13.55;100.00
45541;BME280;31265;49.680;8.608;2022-08-21T03:23:16;100541.69;;;13.50;100.00
45541;BME280;31265;49.680;8.608;2022-08-21T03:25:46;100547.13;;;13.48;100.00
45541;BME280;31265;49.680;8.608;2022-08-21T03:28:18;100553.13;;;13.44;100.00
45541;BME280;31265;49.680;8.608;2022-08-21T03:30:48;100555.00;;;13.42;100.00
45541;BME280;31265;49.680;8.608;2022-08-21T03:33:18;100553.22;;;13.37;100.00
45541;BME280;31265;49.680;8.608;2022-08-21T03:35:56;100557.72;;;13.32;100.00
45541;BME280;31265;49.680;8.608;2022-08-21T03:38:26;100560.75;;;13.26;100.00
45541;BME280;31265;49.680;8.608;2022-08-21T03:40:55;100561.91;;;13.23;100.00
45541;BME280;31265;49.680;8.608;2022-08-21T03:43:23;100560.84;;;13.19;100.00
45541;BME280;31265;49.680;8.608;2022-08-21T03:45:51;100559.78;;;13.14;100.00
45541;BME280;31265;49.680;8.608;2022-08-21T03:48:21;100554.03;;;13.12;100.00
45541;BME280;31265;49.680;8.608;2022-08-21T03:50:52;100562.56;;;13.14;100.00
45541;BME280;31265;49.680;8.608;2022-08-21T03:53:20;100566.00;;;13.22;100.00
45541;BME280;31265;49.680;8.608;2022-08-21T03:55:50;100566.72;;;13.23;100.00
45541;BME280;31265;49.680;8.608;2022-08-21T03:58:21;100564.53;;;13.21;100.00
45541;BME280;31265;49.680;8.608;2022-08-21T04:00:52;100569.75;;;13.17;100.00
45541;BME280;31265;49.680;8.608;2022-08-21T04:03:22;100570.59;;;13.10;100.00
45541;BME280;31265;49.680;8.608;2022-08-21T04:05:50;100569.38;;;13.03;100.00
45541;BME280;31265;49.680;8.608;2022-08-21T04:08:18;100574.19;;;13.03;100.00
45541;BME280;31265;49.680;8.608;2022-08-21T04:10:49;100566.59;;;13.03;100.00
45541;BME280;31265;49.680;8.608;2022-08-21T04:13:18;100576.00;;;13.08;100.00
45541;BME280;31265;49.680;8.608;2022-08-21T04:15:46;100575.84;;;13.06;100.00
45541;BME280;31265;49.680;8.608;2022-08-21T04:18:14;100585.34;;;13.03;100.00
45541;BME280;31265;49.680;8.608;2022-08-21T04:20:45;100588.53;;;12.99;100.00
45541;BME280;31265;49.680;8.608;2022-08-21T04:23:16;100588.13;;;13.03;100.00
45541;BME280;31265;49.680;8.608;2022-08-21T04:25:50;100595.75;;;13.02;100.00
45541;BME280;31265;49.680;8.608;2022-08-21T04:28:18;100596.09;;;13.06;100.00
45541;BME280;31265;49.680;8.608;2022-08-21T04:30:49;100591.06;;;13.05;100.00
45541;BME280;31265;49.680;8.608;2022-08-21T04:33:18;100594.13;;;12.99;100.00
45541;BME280;31265;49.680;8.608;2022-08-21T04:35:48;100598.06;;;12.96;100.00
45541;BME280;31265;49.680;8.608;2022-08-21T04:38:17;100599.13;;;13.01;100.00
45541;BME280;31265;49.680;8.608;2022-08-21T04:40:45;100600.41;;;13.00;100.00
45541;BME280;31265;49.680;8.608;2022-08-21T04:43:13;100598.13;;;13.06;100.00
45541;BME280;31265;49.680;8.608;2022-08-21T04:45:44;100604.44;;;13.06;100.00
45541;BME280;31265;49.680;8.608;2022-08-21T04:48:15;100609.41;;;13.08;100.00
45541;BME280;31265;49.680;8.608;2022-08-21T04:50:48;100611.25;;;13.13;100.00
45541;BME280;31265;49.680;8.608;2022-08-21T04:53:20;100607.31;;;13.16;100.00
45541;BME280;31265;49.680;8.608;2022-08-21T04:55:50;100610.75;;;13.24;100.00
45541;BME280;31265;49.680;8.608;2022-08-21T04:58:21;100612.41;;;13.27;100.00
45541;BME280;31265;49.680;8.608;2022-08-21T05:00:51;100604.38;;;13.31;100.00
45541;BME280;31265;49.680;8.608;2022-08-21T05:03:19;100610.41;;;13.38;100.00
45541;BME280;31265;49.680;8.608;2022-08-21T05:05:49;100606.97;;;13.47;100.00
45541;BME280;31265;49.680;8.608;2022-08-21T05:08:19;100607.63;;;13.55;100.00
45541;BME280;31265;49.680;8.608;2022-08-21T05:10:49;100607.59;;;13.72;100.00
45541;BME280;31265;49.680;8.608;2022-08-21T05:13:22;100611.91;;;13.83;100.00
45541;BME280;31265;49.680;8.608;2022-08-21T05:15:51;100616.47;;;13.88;100.00
45541;BME280;31265;49.680;8.608;2022-08-21T05:18:19;100615.63;;;13.95;100.00
45541;BME280;31265;49.680;8.608;2022-08-21T05:20:47;100616.97;;;14.04;100.00
45541;BME280;31265;49.680;8.608;2022-08-21T05:23:17;100622.44;;;14.12;100.00
45541;BME280;31265;49.680;8.608;2022-08-21T05:25:45;100625.88;;;14.20;100.00
45541;BME280;31265;49.680;8.608;2022-08-21T05:28:14;100623.13;;;14.30;100.00
45541;BME280;31265;49.680;8.608;2022-08-21T05:30:42;100627.25;;;14.38;100.00
45541;BME280;31265;49.680;8.608;2022-08-21T05:33:10;100629.34;;;14.48;100.00
45541;BME280;31265;49.680;8.608;2022-08-21T05:35:39;100622.38;;;14.56;100.00
45541;BME280;31265;49.680;8.608;2022-08-21T05:38:07;100622.09;;;14.62;100.00
45541;BME280;31265;49.680;8.608;2022-08-21T05:40:46;100629.00;;;14.71;100.00
45541;BME280;31265;49.680;8.608;2022-08-21T05:43:14;100628.44;;;14.82;100.00
45541;BME280;31265;49.680;8.608;2022-08-21T05:45:42;100631.84;;;14.90;100.00
45541;BME280;31265;49.680;8.608;2022-08-21T05:48:12;100627.44;;;14.97;100.00
45541;BME280;31265;49.680;8.608;2022-08-21T05:50:43;100622.44;;;15.05;100.00
45541;BME280;31265;49.680;8.608;2022-08-21T05:53:12;100624.06;;;15.18;100.00
45541;BME280;31265;49.680;8.608;2022-08-21T05:55:41;100629.22;;;15.31;100.00
45541;BME280;31265;49.680;8.608;2022-08-21T05:58:15;100631.72;;;15.46;100.00
45541;BME280;31265;49.680;8.608;2022-08-21T06:00:43;100626.53;;;15.62;100.00
45541;BME280;31265;49.680;8.608;2022-08-21T06:03:16;100626.97;;;15.88;100.00
45541;BME280;31265;49.680;8.608;2022-08-21T06:05:45;100630.28;;;16.06;100.00
45541;BME280;31265;49.680;8.608;2022-08-21T06:08:14;100624.63;;;16.25;100.00
45541;BME280;31265;49.680;8.608;2022-08-21T06:10:42;100634.72;;;16.40;100.00
45541;BME280;31265;49.680;8.608;2022-08-21T06:13:11;100632.09;;;16.64;100.00
45541;BME280;31265;49.680;8.608;2022-08-21T06:15:41;100631.25;;;16.83;100.00
45541;BME280;31265;49.680;8.608;2022-08-21T06:18:10;100628.47;;;17.04;100.00
45541;BME280;31265;49.680;8.608;2022-08-21T06:20:38;100632.03;;;17.38;100.00
45541;BME280;31265;49.680;8.608;2022-08-21T06:23:07;100628.81;;;17.65;100.00
45541;BME280;31265;49.680;8.608;2022-08-21T06:25:35;100632.38;;;17.77;100.00
45541;BME280;31265;49.680;8.608;2022-08-21T06:28:04;100639.44;;;18.12;100.00
45541;BME280;31265;49.680;8.608;2022-08-21T06:30:34;100634.94;;;18.30;100.00
45541;BME280;31265;49.680;8.608;2022-08-21T06:33:04;100635.75;;;18.56;100.00
45541;BME280;31265;49.680;8.608;2022-08-21T06:35:34;100647.97;;;18.84;100.00
45541;BME280;31265;49.680;8.608;2022-08-21T06:38:06;100640.75;;;18.93;100.00
45541;BME280;31265;49.680;8.608;2022-08-21T06:40:34;100644.97;;;19.06;100.00
45541;BME280;31265;49.680;8.608;2022-08-21T06:43:11;100640.34;;;19.36;100.00
45541;BME280;31265;49.680;8.608;2022-08-21T06:45:41;100646.41;;;19.56;100.00
45541;BME280;31265;49.680;8.608;2022-08-21T06:48:11;100654.19;;;19.69;100.00
45541;BME280;31265;49.680;8.608;2022-08-21T06:50:45;100641.97;;;20.04;100.00
45541;BME280;31265;49.680;8.608;2022-08-21T06:53:15;100648.16;;;20.42;98.78
45541;BME280;31265;49.680;8.608;2022-08-21T06:55:44;100646.59;;;20.39;95.68
45541;BME280;31265;49.680;8.608;2022-08-21T06:58:12;100643.56;;;20.35;95.04
45541;BME280;31265;49.680;8.608;2022-08-21T07:00:43;100643.59;;;20.63;94.76
45541;BME280;31265;49.680;8.608;2022-08-21T07:03:23;100642.56;;;21.27;82.48
45541;BME280;31265;49.680;8.608;2022-08-21T07:05:51;100640.63;;;21.02;88.80
45541;BME280;31265;49.680;8.608;2022-08-21T07:08:20;100649.59;;;20.98;87.07
45541;BME280;31265;49.680;8.608;2022-08-21T07:10:49;100648.06;;;20.81;87.17
45541;BME280;31265;49.680;8.608;2022-08-21T07:13:17;100647.78;;;21.19;82.93
45541;BME280;31265;49.680;8.608;2022-08-21T07:15:46;100641.28;;;21.30;82.29
45541;BME280;31265;49.680;8.608;2022-08-21T07:18:14;100645.50;;;21.59;80.95
45541;BME280;31265;49.680;8.608;2022-08-21T07:20:44;100644.88;;;21.92;77.02
45541;BME280;31265;49.680;8.608;2022-08-21T07:23:17;100647.38;;;22.31;72.11
45541;BME280;31265;49.680;8.608;2022-08-21T07:25:49;100645.91;;;22.46;70.61
45541;BME280;31265;49.680;8.608;2022-08-21T07:28:18;100645.31;;;22.66;69.45
45541;BME280;31265;49.680;8.608;2022-08-21T07:30:51;100637.84;;;22.57;72.91
45541;BME280;31265;49.680;8.608;2022-08-21T07:33:19;100638.50;;;22.55;72.18
45541;BME280;31265;49.680;8.608;2022-08-21T07:35:48;100635.97;;;22.79;64.96
45541;BME280;31265;49.680;8.608;2022-08-21T07:38:16;100637.59;;;23.18;62.30
45541;BME280;31265;49.680;8.608;2022-08-21T07:40:46;100633.16;;;23.13;65.55
45541;BME280;31265;49.680;8.608;2022-08-21T07:43:14;100628.09;;;23.83;58.31
45541;BME280;31265;49.680;8.608;2022-08-21T07:45:43;100626.41;;;24.14;55.34
45541;BME280;31265;49.680;8.608;2022-08-21T07:48:12;100625.59;;;24.11;55.88
45541;BME280;31265;49.680;8.608;2022-08-21T07:50:40;100622.59;;;24.07;56.56
45541;BME280;31265;49.680;8.608;2022-08-21T07:53:10;100625.88;;;24.19;56.26
45541;BME280;31265;49.680;8.608;2022-08-21T07:55:38;100630.03;;;24.56;53.85
45541;BME280;31265;49.680;8.608;2022-08-21T07:58:07;100620.13;;;24.37;56.91
45541;BME280;31265;49.680;8.608;2022-08-21T08:00:35;100627.56;;;24.88;53.19
45541;BME280;31265;49.680;8.608;2022-08-21T08:03:03;100624.00;;;24.66;52.56
45541;BME280;31265;49.680;8.608;2022-08-21T08:05:32;100621.56;;;24.78;51.73
45541;BME280;31265;49.680;8.608;2022-08-21T08:08:03;100619.28;;;25.17;49.08
45541;BME280;31265;49.680;8.608;2022-08-21T08:10:33;100625.78;;;25.43;48.90
45541;BME280;31265;49.680;8.608;2022-08-21T08:13:02;100623.66;;;25.20;52.87
45541;BME280;31265;49.680;8.608;2022-08-21T08:15:30;100626.72;;;25.50;49.59
45541;BME280;31265;49.680;8.608;2022-08-21T08:18:03;100621.03;;;25.74;49.66
45541;BME280;31265;49.680;8.608;2022-08-21T08:20:32;100615.00;;;26.38;46.78
45541;BME280;31265;49.680;8.608;2022-08-21T08:23:00;100618.03;;;26.44;47.86
45541;BME280;31265;49.680;8.608;2022-08-21T08:25:28;100617.25;;;26.68;45.22
45541;BME280;31265;49.680;8.608;2022-08-21T08:28:05;100620.75;;;26.40;47.69
45541;BME280;31265;49.680;8.608;2022-08-21T08:30:44;100608.44;;;26.57;46.19
45541;BME280;31265;49.680;8.608;2022-08-21T08:33:13;100605.00;;;27.19;44.31
45541;BME280;31265;49.680;8.608;2022-08-21T08:35:41;100606.94;;;26.83;45.09
45541;BME280;31265;49.680;8.608;2022-08-21T08:38:10;100597.66;;;27.10;46.41
45541;BME280;31265;49.680;8.608;2022-08-21T08:40:41;100592.56;;;27.07;44.68
45541;BME280;31265;49.680;8.608;2022-08-21T08:43:13;100593.84;;;27.96;42.08
45541;BME280;31265;49.680;8.608;2022-08-21T08:45:44;100589.91;;;27.79;43.92
45541;BME280;31265;49.680;8.608;2022-08-21T08:48:16;100586.56;;;27.55;43.42
45541;BME280;31265;49.680;8.608;2022-08-21T08:50:52;100586.28;;;27.75;42.92
45541;BME280;31265;49.680;8.608;2022-08-21T08:53:25;100579.00;;;28.02;41.52
45541;BME280;31265;49.680;8.608;2022-08-21T08:55:56;100581.66;;;27.25;44.64
45541;BME280;31265;49.680;8.608;2022-08-21T08:58:28;100579.44;;;27.88;42.65
45541;BME280;31265;49.680;8.608;2022-08-21T09:00:57;100576.91;;;28.04;41.97
45541;BME280;31265;49.680;8.608;2022-08-21T09:03:26;100577.00;;;28.11;42.04
45541;BME280;31265;49.680;8.608;2022-08-21T09:06:00;100570.38;;;29.23;39.17
45541;BME280;31265;49.680;8.608;2022-08-21T09:08:46;100566.84;;;29.27;38.41
45541;BME280;31265;49.680;8.608;2022-08-21T09:11:25;100571.31;;;29.42;38.50
45541;BME280;31265;49.680;8.608;2022-08-21T09:14:04;100563.06;;;28.67;40.08
45541;BME280;31265;49.680;8.608;2022-08-21T09:16:50;100558.03;;;27.87;42.84
45541;BME280;31265;49.680;8.608;2022-08-21T09:19:33;100554.00;;;28.00;41.40
45541;BME280;31265;49.680;8.608;2022-08-21T09:22:23;100550.25;;;28.70;41.36
45541;BME280;31265;49.680;8.608;2022-08-21T09:25:03;100551.09;;;29.24;37.65
45541;BME280;31265;49.680;8.608;2022-08-21T09:27:36;100545.25;;;29.68;35.74
45541;BME280;31265;49.680;8.608;2022-08-21T09:30:08;100545.25;;;29.13;36.49
45541;BME280;31265;49.680;8.608;2022-08-21T09:32:38;100547.00;;;28.88;37.66
45541;BME280;31265;49.680;8.608;2022-08-21T09:35:10;100545.78;;;29.04;37.73
45541;BME280;31265;49.680;8.608;2022-08-21T09:37:51;100541.09;;;29.77;36.13
45541;BME280;31265;49.680;8.608;2022-08-21T09:40:27;100549.28;;;30.12;33.28
45541;BME280;31265;49.680;8.608;2022-08-21T09:43:00;100551.06;;;30.46;32.94
45541;BME280;31265;49.680;8.608;2022-08-21T09:45:31;100549.06;;;29.32;33.59
45541;BME280;31265;49.680;8.608;2022-08-21T09:48:14;100544.16;;;29.39;32.29
45541;BME280;31265;49.680;8.608;2022-08-21T09:50:43;100544.72;;;29.84;32.96
45541;BME280;31265;49.680;8.608;2022-08-21T09:53:17;100539.25;;;30.09;31.09
45541;BME280;31265;49.680;8.608;2022-08-21T09:55:51;100541.22;;;29.92;33.03
45541;BME280;31265;49.680;8.608;2022-08-21T09:58:38;100549.13;;;30.67;28.14
45541;BME280;31265;49.680;8.608;2022-08-21T10:01:14;100548.00;;;31.09;29.24
45541;BME280;31265;49.680;8.608;2022-08-21T10:03:43;100546.25;;;30.71;30.79
45541;BME280;31265;49.680;8.608;2022-08-21T10:06:22;100544.31;;;30.92;32.08
45541;BME280;31265;49.680;8.608;2022-08-21T10:08:50;100535.34;;;30.47;32.36
45541;BME280;31265;49.680;8.608;2022-08-21T10:11:26;100539.09;;;31.96;29.51
45541;BME280;31265;49.680;8.608;2022-08-21T10:14:01;100538.25;;;31.65;31.35
45541;BME280;31265;49.680;8.608;2022-08-21T10:16:39;100532.50;;;31.65;28.99
45541;BME280;31265;49.680;8.608;2022-08-21T10:19:17;100535.47;;;31.93;28.87
45541;BME280;31265;49.680;8.608;2022-08-21T10:21:59;100527.69;;;32.49;29.89
45541;BME280;31265;49.680;8.608;2022-08-21T10:24:30;100529.06;;;32.32;29.65
45541;BME280;31265;49.680;8.608;2022-08-21T10:27:12;100528.38;;;32.66;28.89
45541;BME280;31265;49.680;8.608;2022-08-21T10:29:49;100521.50;;;31.10;30.54
45541;BME280;31265;49.680;8.608;2022-08-21T10:32:40;100517.09;;;30.95;30.64
45541;BME280;31265;49.680;8.608;2022-08-21T10:35:13;100505.94;;;31.52;28.15
45541;BME280;31265;49.680;8.608;2022-08-21T10:37:52;100518.91;;;31.71;28.88
45541;BME280;31265;49.680;8.608;2022-08-21T10:40:27;100511.25;;;30.76;29.69
45541;BME280;31265;49.680;8.608;2022-08-21T10:43:07;100508.19;;;30.54;31.37
45541;BME280;31265;49.680;8.608;2022-08-21T10:45:48;100511.03;;;31.82;28.31
45541;BME280;31265;49.680;8.608;2022-08-21T10:48:25;100504.41;;;31.35;28.56
45541;BME280;31265;49.680;8.608;2022-08-21T10:51:00;100500.13;;;31.36;28.12
45541;BME280;31265;49.680;8.608;2022-08-21T10:53:41;100500.41;;;32.61;26.11
45541;BME280;31265;49.680;8.608;2022-08-21T10:56:16;100510.44;;;32.33;26.43
45541;BME280;31265;49.680;8.608;2022-08-21T10:58:57;100501.84;;;32.49;26.40
45541;BME280;31265;49.680;8.608;2022-08-21T11:01:31;100496.06;;;32.10;26.47
45541;BME280;31265;49.680;8.608;2022-08-21T11:04:11;100493.97;;;30.62;28.58
45541;BME280;31265;49.680;8.608;2022-08-21T11:06:45;100497.09;;;30.99;28.66
45541;BME280;31265;49.680;8.608;2022-08-21T11:09:16;100492.31;;;30.32;28.76
45541;BME280;31265;49.680;8.608;2022-08-21T11:11:49;100485.63;;;31.01;28.37
45541;BME280;31265;49.680;8.608;2022-08-21T11:14:52;100486.06;;;30.60;27.58
45541;BME280;31265;49.680;8.608;2022-08-21T11:17:30;100482.28;;;31.43;27.33
45541;BME280;31265;49.680;8.608;2022-08-21T11:20:06;100486.03;;;32.42;25.84
45541;BME280;31265;49.680;8.608;2022-08-21T11:22:39;100469.53;;;32.69;24.71
45541;BME280;31265;49.680;8.608;2022-08-21T11:25:19;100482.91;;;33.49;24.17
45541;BME280;31265;49.680;8.608;2022-08-21T11:28:05;100478.31;;;33.99;22.66
45541;BME280;31265;49.680;8.608;2022-08-21T11:30:55;100480.03;;;33.57;23.31
45541;BME280;31265;49.680;8.608;2022-08-21T11:33:34;100478.41;;;33.87;22.30
45541;BME280;31265;49.680;8.608;2022-08-21T11:36:15;100468.81;;;34.21;23.73
45541;BME280;31265;49.680;8.608;2022-08-21T11:38:50;100472.59;;;33.95;23.61
45541;BME280;31265;49.680;8.608;2022-08-21T11:41:28;100464.41;;;33.05;24.82
45541;BME280;31265;49.680;8.608;2022-08-21T11:44:04;100467.25;;;31.55;25.72
45541;BME280;31265;49.680;8.608;2022-08-21T11:46:51;100454.41;;;32.87;24.12
45541;BME280;31265;49.680;8.608;2022-08-21T11:49:35;100462.97;;;33.04;24.70
45541;BME280;31265;49.680;8.608;2022-08-21T11:52:15;100455.84;;;32.76;25.11
45541;BME280;31265;49.680;8.608;2022-08-21T11:54:47;100445.13;;;32.48;25.16
45541;BME280;31265;49.680;8.608;2022-08-21T11:57:20;100447.78;;;33.36;24.36
45541;BME280;31265;49.680;8.608;2022-08-21T11:59:53;100442.63;;;33.53;23.31
45541;BME280;31265;49.680;8.608;2022-08-21T12:02:28;100446.25;;;33.51;23.51
45541;BME280;31265;49.680;8.608;2022-08-21T12:05:00;100447.56;;;33.73;22.93
45541;BME280;31265;49.680;8.608;2022-08-21T12:07:39;100437.97;;;34.09;22.23
45541;BME280;31265;49.680;8.608;2022-08-21T12:10:10;100438.31;;;33.52;23.19
45541;BME280;31265;49.680;8.608;2022-08-21T12:12:41;100441.50;;;32.74;23.88
45541;BME280;31265;49.680;8.608;2022-08-21T12:15:25;100437.91;;;32.80;23.27
45541;BME280;31265;49.680;8.608;2022-08-21T12:17:57;100443.34;;;33.57;22.80
45541;BME280;31265;49.680;8.608;2022-08-21T12:20:36;100435.66;;;33.01;23.14
45541;BME280;31265;49.680;8.608;2022-08-21T12:23:26;100430.03;;;32.72;23.57
45541;BME280;31265;49.680;8.608;2022-08-21T12:26:18;100432.94;;;32.08;23.57
45541;BME280;31265;49.680;8.608;2022-08-21T12:28:48;100433.63;;;31.92;25.23
45541;BME280;31265;49.680;8.608;2022-08-21T12:31:23;100440.03;;;31.66;24.84
45541;BME280;31265;49.680;8.608;2022-08-21T12:33:55;100434.34;;;31.89;24.56
45541;BME280;31265;49.680;8.608;2022-08-21T12:36:35;100431.47;;;31.89;25.44
45541;BME280;31265;49.680;8.608;2022-08-21T12:39:12;100428.59;;;32.46;23.31
45541;BME280;31265;49.680;8.608;2022-08-21T12:41:45;100434.38;;;32.22;24.10
45541;BME280;31265;49.680;8.608;2022-08-21T12:44:16;100422.16;;;31.76;24.28
45541;BME280;31265;49.680;8.608;2022-08-21T12:46:48;100422.81;;;31.46;24.89
45541;BME280;31265;49.680;8.608;2022-08-21T12:49:23;100413.78;;;30.60;27.42
45541;BME280;31265;49.680;8.608;2022-08-21T12:51:56;100414.47;;;30.56;26.50
45541;BME280;31265;49.680;8.608;2022-08-21T12:54:29;100412.66;;;31.14;26.31
45541;BME280;31265;49.680;8.608;2022-08-21T12:57:00;100406.97;;;31.33;25.68
45541;BME280;31265;49.680;8.608;2022-08-21T12:59:29;100414.97;;;31.71;24.96
45541;BME280;31265;49.680;8.608;2022-08-21T13:01:59;100418.59;;;32.19;24.57
45541;BME280;31265;49.680;8.608;2022-08-21T13:04:35;100411.41;;;32.32;23.94
45541;BME280;31265;49.680;8.608;2022-08-21T13:07:07;100420.00;;;32.34;24.48
45541;BME280;31265;49.680;8.608;2022-08-21T13:09:46;100416.44;;;32.19;23.91